createdAt,value
2019-02-18T00:00:48.680Z,7.20
2019-02-18T00:03:16.478Z,7.20
2019-02-18T00:05:44.241Z,7.30
2019-02-18T00:08:13.684Z,7.40
2019-02-18T00:10:41.436Z,7.40
2019-02-18T00:13:09.218Z,7.30
2019-02-18T00:15:36.915Z,7.30
2019-02-18T00:18:04.675Z,7.30
2019-02-18T00:20:32.371Z,7.20
2019-02-18T00:23:00.114Z,7.20
2019-02-18T00:25:27.834Z,7.20
2019-02-18T00:27:55.564Z,7.20
2019-02-18T00:30:23.338Z,7.30
2019-02-18T00:32:51.167Z,7.40
2019-02-18T00:35:18.851Z,7.40
2019-02-18T00:37:46.564Z,7.40
2019-02-18T00:40:14.274Z,7.40
2019-02-18T00:42:42.019Z,7.40
2019-02-18T00:45:09.811Z,7.30
2019-02-18T00:47:37.539Z,7.30
2019-02-18T00:50:08.643Z,7.30
2019-02-18T00:52:36.318Z,7.20
2019-02-18T00:55:04.036Z,7.20
2019-02-18T00:57:31.847Z,7.30
2019-02-18T00:59:59.683Z,7.20
2019-02-18T01:02:27.370Z,7.10
2019-02-18T01:04:55.092Z,7.10
2019-02-18T01:07:22.844Z,7.10
2019-02-18T01:09:50.504Z,7.10
2019-02-18T01:12:18.247Z,7.10
2019-02-18T01:14:45.942Z,7.10
2019-02-18T01:17:13.666Z,7.20
2019-02-18T01:19:41.389Z,7.30
2019-02-18T01:22:09.164Z,7.20
2019-02-18T01:24:36.867Z,7.10
2019-02-18T01:27:04.612Z,7.00
2019-02-18T01:29:32.290Z,7.00
2019-02-18T01:32:00.053Z,6.90
2019-02-18T01:34:27.770Z,6.90
2019-02-18T01:36:55.465Z,6.90
2019-02-18T01:39:23.175Z,6.90
2019-02-18T01:41:50.845Z,6.90
2019-02-18T01:44:18.539Z,6.90
2019-02-18T01:46:46.258Z,6.90
2019-02-18T01:49:14.019Z,6.90
2019-02-18T01:51:41.762Z,6.90
2019-02-18T01:54:11.063Z,6.90
2019-02-18T01:56:38.731Z,7.00
2019-02-18T01:59:06.508Z,6.90
2019-02-18T02:01:34.236Z,6.80
2019-02-18T02:04:02.021Z,6.70
2019-02-18T02:06:29.714Z,6.70
2019-02-18T02:08:57.398Z,6.60
2019-02-18T02:11:25.149Z,6.60
2019-02-18T02:13:52.904Z,6.50
2019-02-18T02:16:20.585Z,6.50
2019-02-18T02:18:48.337Z,6.50
2019-02-18T02:21:16.022Z,6.50
2019-02-18T02:23:43.807Z,6.50
2019-02-18T02:26:11.476Z,6.60
2019-02-18T02:28:39.401Z,6.60
2019-02-18T02:31:07.083Z,6.70
2019-02-18T02:33:34.813Z,6.70
2019-02-18T02:36:04.041Z,6.60
2019-02-18T02:38:31.789Z,6.60
2019-02-18T02:40:59.556Z,6.60
2019-02-18T02:43:27.373Z,6.60
2019-02-18T02:45:55.082Z,6.50
2019-02-18T02:48:22.808Z,6.50
2019-02-18T02:50:50.493Z,6.50
2019-02-18T02:53:18.238Z,6.50
2019-02-18T02:55:45.943Z,6.50
2019-02-18T02:58:13.718Z,6.50
2019-02-18T03:00:41.460Z,6.50
2019-02-18T03:03:09.228Z,6.50
2019-02-18T03:05:36.981Z,6.50
2019-02-18T03:08:04.683Z,6.50
2019-02-18T03:10:32.391Z,6.40
2019-02-18T03:13:00.121Z,6.50
2019-02-18T03:15:27.834Z,6.30
2019-02-18T03:17:57.288Z,6.30
2019-02-18T03:20:25.038Z,6.20
2019-02-18T03:22:52.743Z,6.20
2019-02-18T03:25:22.137Z,6.10
2019-02-18T03:27:52.940Z,6.10
2019-02-18T03:30:53.374Z,6.00
2019-02-18T03:33:24.866Z,6.00
2019-02-18T03:35:52.599Z,6.10
2019-02-18T03:38:30.880Z,6.10
2019-02-18T03:40:49.808Z,6.20
2019-02-18T03:43:17.549Z,6.10
2019-02-18T03:45:45.281Z,6.10
2019-02-18T03:48:12.995Z,6.00
2019-02-18T03:50:40.685Z,6.10
2019-02-18T03:53:08.405Z,6.10
2019-02-18T03:55:36.103Z,6.10
2019-02-18T03:58:03.845Z,6.10
2019-02-18T04:00:33.367Z,6.10
2019-02-18T04:03:01.062Z,6.10
2019-02-18T04:05:28.845Z,6.10
2019-02-18T04:07:56.547Z,6.10
2019-02-18T04:10:24.298Z,6.10
2019-02-18T04:12:52.072Z,6.00
2019-02-18T04:15:19.748Z,6.10
2019-02-18T04:17:47.461Z,6.00
2019-02-18T04:20:15.312Z,6.00
2019-02-18T04:22:43.049Z,5.90
2019-02-18T04:25:10.765Z,5.90
2019-02-18T04:27:38.465Z,5.90
2019-02-18T04:30:06.509Z,5.90
2019-02-18T04:32:34.194Z,5.80
2019-02-18T04:35:01.861Z,5.90
2019-02-18T04:37:29.604Z,5.90
2019-02-18T04:39:57.300Z,5.80
2019-02-18T04:42:25.049Z,5.80
2019-02-18T04:44:52.820Z,5.70
2019-02-18T04:47:20.573Z,5.60
2019-02-18T04:49:48.236Z,5.60
2019-02-18T04:52:16.031Z,5.50
2019-02-18T04:54:43.778Z,5.60
2019-02-18T04:57:11.491Z,5.50
2019-02-18T04:59:39.203Z,5.50
2019-02-18T05:02:06.931Z,5.40
2019-02-18T05:04:34.617Z,5.30
2019-02-18T05:07:02.418Z,5.30
2019-02-18T05:09:30.238Z,5.40
2019-02-18T05:11:58.074Z,5.40
2019-02-18T05:14:25.868Z,5.30
2019-02-18T05:16:53.588Z,5.30
2019-02-18T05:19:22.986Z,5.30
2019-02-18T05:21:51.033Z,5.20
2019-02-18T05:24:26.541Z,5.10
2019-02-18T05:26:54.305Z,5.00
2019-02-18T05:29:21.988Z,4.90
2019-02-18T05:31:49.701Z,4.90
2019-02-18T05:34:17.499Z,4.80
2019-02-18T05:36:45.270Z,4.80
2019-02-18T05:39:17.984Z,4.70
2019-02-18T05:41:42.451Z,4.70
2019-02-18T05:44:10.175Z,4.70
2019-02-18T05:46:38.089Z,4.80
2019-02-18T05:49:05.881Z,4.80
2019-02-18T05:51:33.659Z,4.80
2019-02-18T05:54:01.484Z,4.80
2019-02-18T05:56:29.209Z,4.70
2019-02-18T05:58:57.005Z,4.80
2019-02-18T06:01:24.763Z,4.80
2019-02-18T06:03:52.430Z,4.90
2019-02-18T06:06:20.276Z,5.00
2019-02-18T06:08:48.148Z,4.90
2019-02-18T06:11:15.866Z,4.90
2019-02-18T06:13:43.638Z,5.00
2019-02-18T06:16:11.420Z,5.00
2019-02-18T06:18:39.153Z,5.00
2019-02-18T06:21:07.013Z,4.90
2019-02-18T06:23:34.708Z,4.90
2019-02-18T06:26:02.379Z,4.90
2019-02-18T06:28:30.144Z,5.00
2019-02-18T06:30:57.862Z,5.00
2019-02-18T06:33:27.975Z,5.10
2019-02-18T06:35:55.084Z,5.10
2019-02-18T06:38:22.765Z,5.10
2019-02-18T06:40:50.470Z,5.10
2019-02-18T06:43:18.280Z,5.10
2019-02-18T06:45:51.955Z,5.20
2019-02-18T06:48:31.295Z,5.20
2019-02-18T06:50:58.972Z,5.30
2019-02-18T06:53:26.698Z,5.20
2019-02-18T06:55:54.360Z,5.20
2019-02-18T06:58:27.568Z,5.20
2019-02-18T07:01:02.298Z,5.20
2019-02-18T07:04:01.562Z,5.30
2019-02-18T07:06:38.941Z,5.30
2019-02-18T07:09:38.453Z,5.30
2019-02-18T07:12:27.353Z,5.30
2019-02-18T07:14:55.123Z,5.40
2019-02-18T07:17:22.827Z,5.50
2019-02-18T07:19:50.520Z,5.50
2019-02-18T07:22:18.304Z,5.70
2019-02-18T07:24:46.004Z,5.80
2019-02-18T07:27:13.668Z,5.90
2019-02-18T07:29:41.438Z,5.90
2019-02-18T07:32:09.170Z,5.90
2019-02-18T07:34:36.853Z,6.10
2019-02-18T07:37:04.571Z,6.40
2019-02-18T07:39:32.282Z,6.20
2019-02-18T07:41:59.941Z,6.30
2019-02-18T07:44:27.694Z,6.40
2019-02-18T07:46:55.380Z,6.50
2019-02-18T07:49:23.118Z,6.60
2019-02-18T07:51:50.795Z,6.70
2019-02-18T07:54:18.614Z,6.80
2019-02-18T07:56:46.374Z,6.90
2019-02-18T07:59:14.118Z,6.90
2019-02-18T08:01:42.935Z,7.00
2019-02-18T08:04:10.685Z,7.10
2019-02-18T08:06:38.445Z,7.20
2019-02-18T08:09:06.615Z,7.40
2019-02-18T08:11:34.376Z,7.60
2019-02-18T08:14:02.089Z,7.70
2019-02-18T08:16:29.978Z,7.90
2019-02-18T08:18:57.998Z,8.30
2019-02-18T08:21:26.022Z,8.30
2019-02-18T08:24:00.045Z,8.60
2019-02-18T08:26:23.580Z,8.90
2019-02-18T08:28:51.338Z,9.00
2019-02-18T08:31:19.088Z,9.20
2019-02-18T08:33:59.515Z,9.20
2019-02-18T08:36:27.267Z,9.30
2019-02-18T08:38:55.040Z,9.50
2019-02-18T08:41:22.730Z,9.50
2019-02-18T08:43:50.523Z,9.60
2019-02-18T08:46:18.244Z,9.60
2019-02-18T08:48:45.934Z,9.70
2019-02-18T08:51:13.717Z,9.90
2019-02-18T08:53:41.487Z,10.00
2019-02-18T08:56:09.178Z,10.30
2019-02-18T08:58:36.894Z,10.30
2019-02-18T09:01:04.871Z,10.80
2019-02-18T09:03:32.613Z,10.80
2019-02-18T09:06:00.364Z,10.90
2019-02-18T09:08:28.146Z,11.00
2019-02-18T09:10:55.868Z,11.00
2019-02-18T09:13:23.584Z,11.00
2019-02-18T09:15:59.845Z,11.10
2019-02-18T09:18:21.273Z,11.30
2019-02-18T09:20:49.278Z,11.80
2019-02-18T09:23:34.750Z,12.00
2019-02-18T09:26:03.551Z,12.40
2019-02-18T09:28:31.446Z,12.50
2019-02-18T09:33:26.890Z,13.10
2019-02-18T09:35:54.698Z,13.10
2019-02-18T09:38:25.323Z,13.50
2019-02-18T09:40:51.997Z,13.90
2019-02-18T09:43:19.839Z,14.20
2019-02-18T09:45:47.553Z,14.50
2019-02-18T09:48:15.410Z,14.90
2019-02-18T09:50:43.187Z,14.90
2019-02-18T09:53:11.644Z,15.10
2019-02-18T09:55:39.376Z,15.30
2019-02-18T09:58:07.096Z,16.10
2019-02-18T10:00:34.872Z,16.10
2019-02-18T10:03:02.623Z,16.00
2019-02-18T10:05:30.324Z,16.10
2019-02-18T10:07:58.050Z,16.70
2019-02-18T10:10:25.756Z,17.10
2019-02-18T10:12:53.983Z,17.20
2019-02-18T10:15:22.075Z,17.20
2019-02-18T10:17:50.086Z,17.30
2019-02-18T10:20:17.888Z,17.10
2019-02-18T10:22:45.973Z,17.10
2019-02-18T10:25:13.774Z,17.10
2019-02-18T10:27:41.516Z,17.10
2019-02-18T10:30:09.551Z,16.90
2019-02-18T10:32:37.195Z,17.30
2019-02-18T10:35:06.430Z,17.40
2019-02-18T10:37:34.149Z,17.30
2019-02-18T10:40:01.944Z,17.40
2019-02-18T10:42:29.737Z,17.70
2019-02-18T10:44:57.446Z,17.90
2019-02-18T10:47:25.164Z,17.90
2019-02-18T10:49:52.941Z,18.20
2019-02-18T10:52:22.568Z,18.60
2019-02-18T10:54:50.551Z,18.90
2019-02-18T10:57:18.326Z,18.60
2019-02-18T10:59:46.020Z,18.40
2019-02-18T11:02:16.539Z,18.30
2019-02-18T11:04:44.284Z,18.60
2019-02-18T11:07:12.544Z,18.70
2019-02-18T11:09:40.275Z,18.80
2019-02-18T11:12:08.044Z,19.30
2019-02-18T11:14:35.783Z,19.50
2019-02-18T11:17:03.497Z,19.40
2019-02-18T11:19:31.271Z,19.50
2019-02-18T11:21:58.941Z,19.20
2019-02-18T11:24:26.736Z,19.60
2019-02-18T11:26:55.055Z,19.60
2019-02-18T11:29:23.199Z,19.40
2019-02-18T11:31:50.967Z,19.10
2019-02-18T11:34:18.668Z,19.00
2019-02-18T11:36:46.414Z,18.90
2019-02-18T11:39:16.376Z,18.90
2019-02-18T11:41:44.695Z,18.80
2019-02-18T11:44:14.513Z,18.60
2019-02-18T11:46:42.220Z,18.90
2019-02-18T11:49:09.961Z,18.90
2019-02-18T11:51:37.719Z,18.90
2019-02-18T11:54:05.411Z,18.50
2019-02-18T11:56:33.489Z,18.40
2019-02-18T11:59:01.209Z,18.40
2019-02-18T12:01:28.950Z,18.50
2019-02-18T12:03:56.684Z,18.30
2019-02-18T12:06:24.491Z,18.20
2019-02-18T12:08:52.176Z,18.00
2019-02-18T12:11:39.380Z,18.00
2019-02-18T12:14:07.078Z,17.50
2019-02-18T12:16:34.785Z,17.80
2019-02-18T12:19:02.517Z,17.60
2019-02-18T12:21:30.213Z,17.50
2019-02-18T12:23:57.884Z,17.40
2019-02-18T12:26:37.433Z,17.20
2019-02-18T12:29:05.482Z,17.20
2019-02-18T12:31:33.483Z,17.30
2019-02-18T12:34:01.528Z,17.20
2019-02-18T12:36:29.490Z,17.30
2019-02-18T12:38:57.464Z,17.30
2019-02-18T12:41:25.873Z,17.40
2019-02-18T12:43:53.851Z,17.40
2019-02-18T12:46:21.782Z,17.40
2019-02-18T12:48:49.715Z,17.60
2019-02-18T12:51:17.752Z,17.80
2019-02-18T12:53:46.458Z,17.80
2019-02-18T12:56:14.521Z,18.10
2019-02-18T12:58:42.607Z,18.00
2019-02-18T13:01:10.704Z,17.80
2019-02-18T13:03:38.462Z,17.90
2019-02-18T13:06:06.158Z,18.10
2019-02-18T13:08:35.510Z,18.20
2019-02-18T13:11:03.283Z,18.30
2019-02-18T13:13:31.477Z,18.30
2019-02-18T13:15:59.343Z,18.40
2019-02-18T13:18:27.021Z,18.60
2019-02-18T13:20:55.110Z,18.80
2019-02-18T13:23:22.949Z,18.90
2019-02-18T13:25:50.870Z,18.70
2019-02-18T13:28:18.591Z,18.70
2019-02-18T13:30:46.387Z,18.50
2019-02-18T13:33:14.067Z,18.70
2019-02-18T13:35:41.802Z,18.70
2019-02-18T13:38:09.908Z,18.70
2019-02-18T13:40:37.604Z,18.90
2019-02-18T13:43:05.315Z,18.90
2019-02-18T13:45:33.118Z,19.10
2019-02-18T13:48:01.209Z,19.20
2019-02-18T13:50:28.904Z,19.20
2019-02-18T13:52:56.646Z,19.20
2019-02-18T13:55:24.639Z,19.50
2019-02-18T13:57:52.308Z,19.70
2019-02-18T14:00:20.671Z,19.80
2019-02-18T14:02:49.176Z,19.70
2019-02-18T14:05:17.975Z,19.80
2019-02-18T14:07:46.031Z,20.30
2019-02-18T14:10:14.242Z,20.80
2019-02-18T14:12:42.375Z,20.80
2019-02-18T14:15:10.668Z,21.40
2019-02-18T14:17:38.586Z,21.40
2019-02-18T14:20:09.782Z,22.00
2019-02-18T14:22:37.826Z,22.00
2019-02-18T14:27:34.496Z,22.10
2019-02-18T14:30:02.348Z,21.80
2019-02-18T14:32:30.424Z,21.30
2019-02-18T14:34:58.139Z,20.90
2019-02-18T14:37:25.911Z,20.90
2019-02-18T14:39:53.622Z,20.40
2019-02-18T14:42:24.508Z,20.10
2019-02-18T14:44:51.883Z,19.80
2019-02-18T14:47:19.806Z,19.70
2019-02-18T14:49:47.466Z,19.80
2019-02-18T14:52:15.549Z,19.80
2019-02-18T14:54:45.658Z,19.80
2019-02-18T14:57:13.372Z,19.90
2019-02-18T14:59:41.475Z,20.10
2019-02-18T15:02:09.285Z,20.10
2019-02-18T15:04:36.926Z,19.90
2019-02-18T15:07:04.626Z,19.30
2019-02-18T15:09:32.406Z,18.80
2019-02-18T15:12:00.182Z,18.60
2019-02-18T15:14:27.987Z,18.50
2019-02-18T15:16:56.025Z,18.40
2019-02-18T15:19:23.698Z,18.40
2019-02-18T15:21:51.410Z,18.90
2019-02-18T15:24:20.277Z,19.20
2019-02-18T15:26:47.958Z,19.10
2019-02-18T15:29:15.610Z,19.10
2019-02-18T15:31:43.300Z,19.10
2019-02-18T15:34:11.020Z,18.80
2019-02-18T15:36:38.753Z,18.30
2019-02-18T15:39:08.295Z,17.80
2019-02-18T15:41:36.061Z,17.40
2019-02-18T15:44:04.709Z,17.00
2019-02-18T15:46:32.452Z,16.60
2019-02-18T15:49:00.628Z,16.30
2019-02-18T15:51:28.379Z,16.00
2019-02-18T15:53:56.139Z,15.80
2019-02-18T15:56:23.879Z,15.60
2019-02-18T15:58:51.628Z,15.50
2019-02-18T16:01:21.626Z,15.40
2019-02-18T16:03:50.563Z,15.30
2019-02-18T16:06:19.052Z,15.10
2019-02-18T16:08:46.782Z,15.00
2019-02-18T16:11:14.542Z,15.00
2019-02-18T16:13:42.261Z,15.00
2019-02-18T16:16:10.413Z,14.90
2019-02-18T16:18:38.234Z,14.80
2019-02-18T16:21:05.984Z,14.80
2019-02-18T16:23:33.723Z,14.60
2019-02-18T16:26:01.862Z,14.50
2019-02-18T16:28:31.384Z,14.30
2019-02-18T16:30:59.114Z,14.20
2019-02-18T16:33:26.822Z,14.00
2019-02-18T16:35:54.517Z,13.90
2019-02-18T16:38:22.325Z,13.70
2019-02-18T16:41:02.452Z,13.60
2019-02-18T16:43:30.582Z,13.50
2019-02-18T16:45:59.581Z,13.40
2019-02-18T16:48:27.763Z,13.50
2019-02-18T16:50:56.937Z,13.70
2019-02-18T16:53:26.647Z,13.80
2019-02-18T16:55:54.473Z,13.80
2019-02-18T16:58:22.196Z,13.80
2019-02-18T17:00:57.306Z,13.70
2019-02-18T17:03:19.493Z,13.60
2019-02-18T17:05:47.233Z,13.60
2019-02-18T17:08:15.211Z,13.50
2019-02-18T17:10:43.296Z,13.40
2019-02-18T17:13:13.254Z,13.20
2019-02-18T17:15:41.018Z,13.20
2019-02-18T17:18:10.079Z,13.00
2019-02-18T17:20:37.799Z,12.90
2019-02-18T17:23:09.496Z,12.80
2019-02-18T17:25:37.705Z,12.80
2019-02-18T17:28:05.471Z,12.60
2019-02-18T17:30:33.610Z,12.50
2019-02-18T17:33:01.554Z,12.50
2019-02-18T17:35:31.288Z,12.30
2019-02-18T17:37:59.217Z,12.30
2019-02-18T17:40:27.142Z,12.20
2019-02-18T17:42:54.852Z,12.20
2019-02-18T17:45:26.428Z,12.10
2019-02-18T17:47:54.180Z,12.10
2019-02-18T17:50:21.910Z,12.00
2019-02-18T17:52:49.666Z,11.90
2019-02-18T17:55:17.389Z,11.80
2019-02-18T17:57:45.146Z,11.80
2019-02-18T18:00:15.375Z,11.70
2019-02-18T18:02:43.137Z,11.60
2019-02-18T18:05:10.932Z,11.60
2019-02-18T18:07:38.704Z,11.50
2019-02-18T18:10:08.529Z,11.50
2019-02-18T18:12:36.447Z,11.50
2019-02-18T18:15:04.315Z,11.50
2019-02-18T18:17:32.172Z,11.50
2019-02-18T18:19:59.931Z,11.50
2019-02-18T18:22:27.614Z,11.40
2019-02-18T18:24:55.326Z,11.30
2019-02-18T18:27:23.039Z,11.30
2019-02-18T18:29:51.083Z,11.30
2019-02-18T18:32:18.765Z,11.30
2019-02-18T18:34:48.302Z,11.20
2019-02-18T18:37:16.092Z,11.10
2019-02-18T18:39:43.792Z,11.10
2019-02-18T18:42:11.518Z,11.00
2019-02-18T18:44:41.541Z,11.00
2019-02-18T18:47:09.340Z,10.90
2019-02-18T18:49:37.121Z,10.80
2019-02-18T18:52:04.824Z,10.80
2019-02-18T18:54:33.398Z,10.80
2019-02-18T18:57:01.545Z,10.70
2019-02-18T18:59:29.285Z,10.60
2019-02-18T19:01:57.112Z,10.60
2019-02-18T19:04:24.910Z,10.50
2019-02-18T19:06:52.775Z,10.40
2019-02-18T19:09:20.526Z,10.50
2019-02-18T19:11:48.229Z,10.40
2019-02-18T19:14:15.979Z,10.40
2019-02-18T19:16:44.070Z,10.50
2019-02-18T19:19:11.860Z,10.40
2019-02-18T19:21:39.499Z,10.40
2019-02-18T19:24:07.373Z,10.30
2019-02-18T19:26:35.064Z,10.20
2019-02-18T19:29:03.006Z,10.20
2019-02-18T19:31:35.250Z,10.10
2019-02-18T19:34:02.911Z,10.00
2019-02-18T19:36:32.207Z,10.00
2019-02-18T19:39:00.135Z,9.90
2019-02-18T19:41:27.868Z,9.90
2019-02-18T19:43:55.630Z,9.90
2019-02-18T19:46:23.309Z,9.80
2019-02-18T19:48:51.346Z,9.70
2019-02-18T19:51:19.056Z,9.70
2019-02-18T19:53:46.790Z,9.60
2019-02-18T19:56:14.518Z,9.60
2019-02-18T19:58:42.319Z,9.50
2019-02-18T20:01:10.007Z,9.60
2019-02-18T20:03:37.699Z,9.60
2019-02-18T20:06:05.384Z,9.50
2019-02-18T20:08:33.117Z,9.50
2019-02-18T20:11:00.885Z,9.50
2019-02-18T20:13:28.576Z,9.40
2019-02-18T20:15:56.371Z,9.40
2019-02-18T20:18:24.112Z,9.40
2019-02-18T20:20:52.266Z,9.40
2019-02-18T20:23:20.030Z,9.40
2019-02-18T20:25:47.722Z,9.30
2019-02-18T20:28:15.439Z,9.30
2019-02-18T20:30:43.167Z,9.20
2019-02-18T20:33:10.916Z,9.20
2019-02-18T20:35:57.107Z,9.10
2019-02-18T20:38:43.666Z,9.10
2019-02-18T20:41:29.944Z,9.10
2019-02-18T20:44:16.341Z,9.10
2019-02-18T20:47:03.007Z,9.00
2019-02-18T20:49:49.847Z,9.10
2019-02-18T20:52:36.131Z,9.00
2019-02-18T20:55:22.751Z,9.00
2019-02-18T20:58:09.192Z,9.00
2019-02-18T21:00:55.918Z,8.90
2019-02-18T21:03:42.423Z,8.80
2019-02-18T21:06:28.805Z,8.80
2019-02-18T21:09:15.213Z,8.80
2019-02-18T21:12:01.771Z,8.70
2019-02-18T21:14:48.227Z,8.70
2019-02-18T21:17:41.076Z,8.70
2019-02-18T21:20:08.993Z,8.60
2019-02-18T21:22:36.655Z,8.60
2019-02-18T21:25:04.882Z,8.50
2019-02-18T21:27:32.581Z,8.50
2019-02-18T21:30:00.337Z,8.50
2019-02-18T21:32:28.095Z,8.40
2019-02-18T21:34:55.884Z,8.40
2019-02-18T21:37:23.584Z,8.40
2019-02-18T21:39:51.353Z,8.40
2019-02-18T21:42:19.428Z,8.30
2019-02-18T21:44:47.118Z,8.30
2019-02-18T21:47:14.860Z,8.30
2019-02-18T21:49:42.636Z,8.30
2019-02-18T21:52:10.667Z,8.30
2019-02-18T21:54:38.416Z,8.30
2019-02-18T21:57:06.140Z,8.40
2019-02-18T21:59:34.185Z,8.30
2019-02-18T22:02:01.868Z,8.30
2019-02-18T22:04:32.204Z,8.30
2019-02-18T22:06:59.937Z,8.20
2019-02-18T22:09:28.021Z,8.10
2019-02-18T22:11:58.145Z,8.10
2019-02-18T22:14:33.263Z,8.10
2019-02-18T22:16:57.931Z,8.00
2019-02-18T22:19:30.531Z,8.10
2019-02-18T22:21:58.832Z,8.00
2019-02-18T22:24:26.896Z,8.00
2019-02-18T22:26:54.576Z,8.00
2019-02-18T22:29:26.923Z,7.90
2019-02-18T22:31:54.678Z,7.60
2019-02-18T22:34:24.905Z,7.90
2019-02-18T22:36:53.030Z,7.90
2019-02-18T22:39:20.725Z,7.90
2019-02-18T22:41:48.550Z,7.90
2019-02-18T22:44:16.730Z,7.90
2019-02-18T22:46:45.157Z,7.90
2019-02-18T22:49:13.624Z,8.00
2019-02-18T22:51:43.591Z,8.00
2019-02-18T22:54:11.515Z,8.00
2019-02-18T22:56:40.714Z,8.10
2019-02-18T22:59:08.553Z,8.10
2019-02-18T23:01:36.883Z,8.10
2019-02-18T23:04:06.717Z,8.00
2019-02-18T23:06:34.418Z,8.00
2019-02-18T23:09:02.148Z,8.10
2019-02-18T23:11:29.806Z,8.10
2019-02-18T23:13:57.530Z,8.10
2019-02-18T23:16:25.290Z,8.10
2019-02-18T23:18:53.048Z,8.10
2019-02-18T23:21:21.256Z,8.10
2019-02-18T23:23:48.946Z,8.10
2019-02-18T23:26:16.683Z,8.10
2019-02-18T23:28:44.677Z,8.10
2019-02-18T23:31:12.408Z,8.10
2019-02-18T23:33:40.126Z,8.00
2019-02-18T23:36:07.901Z,8.00
2019-02-18T23:38:35.604Z,8.00
2019-02-18T23:41:03.345Z,8.00
2019-02-18T23:43:30.991Z,8.00
2019-02-18T23:46:00.232Z,7.90
2019-02-18T23:48:27.931Z,7.90
2019-02-18T23:50:55.622Z,7.80
2019-02-18T23:53:23.300Z,7.90
2019-02-18T23:55:51.059Z,7.90
2019-02-18T23:58:18.750Z,7.90
